Time;durP1;ratioP1;P1;durP2;ratioP2;P2;SDS_P1;SDS_P2;PMS_P1;PMS_P2;Temp;Humidity;BMP_temperature;BMP_pressure;BME280_temperature;BME280_humidity;BME280_pressure;Samples;Min_cycle;Max_cycle;Signal;HPM_P1;HPM_P2
2023/09/11 00:01:26;;;;;;;6.43;4.00;;;;;;;;;;4904474;29;20028;-70
2023/09/11 00:03:52;;;;;;;5.63;3.58;;;;;;;;;;4907355;29;20075;-70
2023/09/11 00:06:18;;;;;;;5.30;4.10;;;;;;;;;;4912378;29;20028;-71
2023/09/11 00:08:44;;;;;;;5.15;3.63;;;;;;;;;;4887336;29;20119;-70
2023/09/11 00:11:10;;;;;;;5.95;3.92;;;;;;;;;;4904375;29;20520;-70
2023/09/11 00:13:36;;;;;;;7.68;4.13;;;;;;;;;;4903836;29;20538;-70
2023/09/11 00:16:02;;;;;;;6.03;3.88;;;;;;;;;;4887334;29;20557;-70
2023/09/11 00:18:28;;;;;;;6.05;3.97;;;;;;;;;;4904063;29;20028;-70
2023/09/11 00:20:54;;;;;;;6.65;4.32;;;;;;;;;;4904244;29;20037;-70
2023/09/11 00:23:20;;;;;;;6.03;4.70;;;;;;;;;;4904251;29;20040;-70
2023/09/11 00:25:46;;;;;;;6.18;4.50;;;;;;;;;;4887279;29;20443;-70
2023/09/11 00:28:12;;;;;;;7.75;4.60;;;;;;;;;;4903720;29;20478;-70
2023/09/11 00:30:38;;;;;;;6.43;4.68;;;;;;;;;;4887206;29;20084;-70
2023/09/11 00:33:04;;;;;;;8.05;4.55;;;;;;;;;;4887162;29;20088;-70
2023/09/11 00:35:30;;;;;;;10.05;5.85;;;;;;;;;;4903542;29;20604;-70
2023/09/11 00:37:56;;;;;;;7.30;4.75;;;;;;;;;;4903122;29;20085;-70
2023/09/11 00:40:22;;;;;;;6.93;4.80;;;;;;;;;;4905464;29;20024;-70
2023/09/11 00:42:48;;;;;;;5.53;4.03;;;;;;;;;;4903706;29;20111;-70
2023/09/11 00:45:15;;;;;;;6.70;3.75;;;;;;;;;;4903609;29;20029;-70
2023/09/11 00:47:41;;;;;;;7.20;5.00;;;;;;;;;;4905244;29;20126;-70
2023/09/11 00:50:10;;;;;;;6.07;4.22;;;;;;;;;;4891419;29;20439;-70
2023/09/11 00:52:36;;;;;;;6.28;4.60;;;;;;;;;;4903299;29;20029;-69
2023/09/11 00:55:02;;;;;;;7.65;5.20;;;;;;;;;;4903586;29;20035;-70
2023/09/11 00:57:29;;;;;;;6.72;4.70;;;;;;;;;;4903479;29;20059;-70
2023/09/11 00:59:55;;;;;;;6.13;4.00;;;;;;;;;;4903469;29;20095;-70
2023/09/11 01:02:21;;;;;;;5.95;4.35;;;;;;;;;;4903441;29;20037;-70
2023/09/11 01:04:48;;;;;;;6.40;4.43;;;;;;;;;;4909634;29;20139;-70
2023/09/11 01:07:17;;;;;;;5.88;4.22;;;;;;;;;;4892151;29;20393;-70
2023/09/11 01:09:43;;;;;;;7.15;4.20;;;;;;;;;;4903184;29;20141;-70
2023/09/11 01:12:09;;;;;;;5.25;4.00;;;;;;;;;;4903122;29;20048;-70
2023/09/11 01:14:39;;;;;;;8.07;5.13;;;;;;;;;;4902960;29;20050;-70
2023/09/11 01:17:20;;;;;;;7.15;4.43;;;;;;;;;;4903112;29;20059;-70
2023/09/11 01:19:55;;;;;;;7.20;4.88;;;;;;;;;;4886380;29;20025;-70
2023/09/11 01:22:21;;;;;;;5.15;3.80;;;;;;;;;;4902895;29;20402;-70
2023/09/11 01:24:51;;;;;;;8.23;4.60;;;;;;;;;;4902915;29;20112;-70
2023/09/11 01:27:26;;;;;;;5.50;3.45;;;;;;;;;;4902842;29;20035;-69
2023/09/11 01:29:52;;;;;;;5.95;4.50;;;;;;;;;;4902528;29;20025;-69
2023/09/11 01:32:21;;;;;;;7.72;5.28;;;;;;;;;;4902927;29;20055;-69
2023/09/11 01:34:47;;;;;;;5.95;4.40;;;;;;;;;;4902769;29;20029;-69
2023/09/11 01:37:13;;;;;;;7.43;4.80;;;;;;;;;;4902904;29;20028;-69
2023/09/11 01:39:39;;;;;;;6.03;4.15;;;;;;;;;;4904225;29;20081;-68
2023/09/11 01:42:09;;;;;;;7.07;4.63;;;;;;;;;;4902621;29;20034;-68
2023/09/11 01:44:45;;;;;;;7.20;4.43;;;;;;;;;;4902341;29;20029;-69
2023/09/11 01:47:12;;;;;;;9.48;4.78;;;;;;;;;;4904826;29;20092;-69
2023/09/11 01:49:39;;;;;;;6.00;3.95;;;;;;;;;;4903752;29;20052;-70
2023/09/11 01:52:07;;;;;;;8.07;4.65;;;;;;;;;;4902517;29;20375;-70
2023/09/11 01:54:33;;;;;;;6.15;4.40;;;;;;;;;;4902347;29;20024;-70
2023/09/11 01:57:00;;;;;;;8.20;4.28;;;;;;;;;;4902376;29;20466;-69
2023/09/11 01:59:26;;;;;;;4.95;3.65;;;;;;;;;;4902066;29;20398;-70
2023/09/11 02:01:52;;;;;;;5.93;4.30;;;;;;;;;;4902369;29;20033;-71
2023/09/11 02:04:18;;;;;;;7.32;4.10;;;;;;;;;;4902091;29;20085;-70
2023/09/11 02:06:44;;;;;;;8.80;5.75;;;;;;;;;;4909435;29;20043;-70
2023/09/11 02:09:10;;;;;;;8.23;5.05;;;;;;;;;;4902221;29;20033;-71
2023/09/11 02:11:36;;;;;;;8.02;4.65;;;;;;;;;;4885195;29;20031;-69
2023/09/11 02:14:02;;;;;;;8.60;4.93;;;;;;;;;;4911945;29;20056;-69
2023/09/11 02:16:29;;;;;;;8.50;5.15;;;;;;;;;;4894682;29;20035;-69
2023/09/11 02:18:55;;;;;;;7.43;4.57;;;;;;;;;;4902162;29;20092;-70
2023/09/11 02:21:21;;;;;;;9.85;5.18;;;;;;;;;;4902165;29;20103;-69
2023/09/11 02:23:47;;;;;;;8.00;4.68;;;;;;;;;;4901001;29;20040;-70
2023/09/11 02:26:13;;;;;;;6.53;4.57;;;;;;;;;;4902103;29;20044;-69
2023/09/11 02:28:40;;;;;;;8.32;4.90;;;;;;;;;;4901729;29;20455;-69
2023/09/11 02:31:06;;;;;;;9.10;4.90;;;;;;;;;;4902148;29;20036;-68
2023/09/11 02:33:32;;;;;;;4.72;3.60;;;;;;;;;;4902014;29;20033;-69
2023/09/11 02:35:59;;;;;;;8.98;4.80;;;;;;;;;;4902127;29;20063;-69
2023/09/11 02:38:25;;;;;;;5.53;4.30;;;;;;;;;;4901930;29;20021;-69
2023/09/11 02:40:52;;;;;;;5.78;3.92;;;;;;;;;;4903531;29;20025;-69
2023/09/11 02:43:18;;;;;;;6.93;4.10;;;;;;;;;;4901646;29;20028;-69
2023/09/11 02:45:44;;;;;;;7.72;4.75;;;;;;;;;;4902060;29;20084;-69
2023/09/11 02:48:10;;;;;;;8.50;5.63;;;;;;;;;;4903466;29;20021;-69
2023/09/11 02:50:36;;;;;;;7.72;5.68;;;;;;;;;;4902096;29;20028;-68
2023/09/11 02:53:02;;;;;;;4.95;3.85;;;;;;;;;;4901664;29;20025;-69
2023/09/11 02:55:28;;;;;;;7.32;4.95;;;;;;;;;;4901922;29;20447;-70
2023/09/11 02:57:54;;;;;;;8.65;5.53;;;;;;;;;;4901513;29;20793;-69
2023/09/11 03:00:20;;;;;;;7.28;4.70;;;;;;;;;;4904059;29;20463;-69
2023/09/11 03:02:46;;;;;;;7.82;4.88;;;;;;;;;;4905585;29;20033;-69
2023/09/11 03:05:12;;;;;;;10.10;6.43;;;;;;;;;;4905708;29;20043;-69
2023/09/11 03:07:38;;;;;;;5.95;4.22;;;;;;;;;;4905573;29;20035;-69
2023/09/11 03:10:06;;;;;;;9.07;6.05;;;;;;;;;;4905492;29;20064;-69
2023/09/11 03:12:32;;;;;;;9.82;6.22;;;;;;;;;;4905454;29;20126;-70
2023/09/11 03:15:03;;;;;;;9.75;5.60;;;;;;;;;;4905356;29;20577;-69
2023/09/11 03:17:30;;;;;;;8.50;5.40;;;;;;;;;;4905402;29;20023;-69
2023/09/11 03:19:57;;;;;;;11.23;7.18;;;;;;;;;;4905537;29;20115;-69
2023/09/11 03:22:23;;;;;;;10.07;6.22;;;;;;;;;;4905343;29;20035;-70
2023/09/11 03:24:50;;;;;;;8.60;5.45;;;;;;;;;;4905416;29;20033;-70
2023/09/11 03:27:16;;;;;;;6.85;4.70;;;;;;;;;;4888267;29;20132;-70
2023/09/11 03:29:42;;;;;;;11.07;6.38;;;;;;;;;;4904991;29;20036;-70
2023/09/11 03:32:08;;;;;;;9.05;6.05;;;;;;;;;;4905175;29;20025;-70
2023/09/11 03:34:34;;;;;;;9.63;6.05;;;;;;;;;;4905151;29;20055;-70
2023/09/11 03:37:00;;;;;;;11.10;6.43;;;;;;;;;;4888060;29;20029;-70
2023/09/11 03:39:26;;;;;;;8.05;5.13;;;;;;;;;;4905576;29;20033;-70
2023/09/11 03:41:53;;;;;;;7.25;5.55;;;;;;;;;;4905691;29;20063;-70
2023/09/11 03:44:19;;;;;;;11.32;6.85;;;;;;;;;;4904784;29;20024;-70
2023/09/11 03:46:45;;;;;;;9.60;5.85;;;;;;;;;;4904847;29;20024;-69
2023/09/11 03:49:11;;;;;;;6.63;4.88;;;;;;;;;;4905945;29;20061;-69
2023/09/11 03:51:37;;;;;;;9.98;6.35;;;;;;;;;;4904912;29;20025;-69
2023/09/11 03:54:07;;;;;;;9.05;5.40;;;;;;;;;;4904611;29;20041;-69
2023/09/11 03:56:33;;;;;;;10.93;6.32;;;;;;;;;;4904833;29;20029;-69
2023/09/11 03:58:59;;;;;;;7.63;5.32;;;;;;;;;;4904542;29;20048;-69
2023/09/11 04:01:25;;;;;;;8.27;5.72;;;;;;;;;;4904749;29;20081;-69
2023/09/11 04:03:51;;;;;;;9.00;5.40;;;;;;;;;;4904644;29;20561;-69
2023/09/11 04:06:19;;;;;;;8.68;5.45;;;;;;;;;;4904548;29;20035;-69
2023/09/11 04:08:45;;;;;;;7.60;5.65;;;;;;;;;;4904342;29;20033;-70
2023/09/11 04:11:11;;;;;;;9.75;6.13;;;;;;;;;;4910587;29;20051;-69
2023/09/11 04:13:37;;;;;;;9.32;5.55;;;;;;;;;;4940081;29;20048;-71
2023/09/11 04:16:04;;;;;;;7.72;5.68;;;;;;;;;;4942702;29;20079;-69
2023/09/11 04:18:30;;;;;;;8.80;5.57;;;;;;;;;;4925087;29;20036;-69
2023/09/11 04:21:06;;;;;;;8.38;5.28;;;;;;;;;;4942239;29;20082;-69
2023/09/11 04:23:32;;;;;;;7.28;5.00;;;;;;;;;;4942074;29;20055;-69
2023/09/11 04:25:58;;;;;;;9.80;6.38;;;;;;;;;;4942116;29;20027;-69
2023/09/11 04:28:24;;;;;;;9.75;5.45;;;;;;;;;;4941716;29;20422;-68
2023/09/11 04:30:50;;;;;;;10.88;5.43;;;;;;;;;;4942077;29;20393;-69
2023/09/11 04:33:16;;;;;;;8.70;5.40;;;;;;;;;;4941955;29;20489;-69
2023/09/11 04:35:42;;;;;;;8.95;6.05;;;;;;;;;;4941971;29;20473;-69
2023/09/11 04:38:08;;;;;;;7.70;5.43;;;;;;;;;;4940057;29;20054;-71
2023/09/11 04:40:34;;;;;;;6.82;4.70;;;;;;;;;;4924310;29;20497;-69
2023/09/11 04:43:00;;;;;;;9.35;6.20;;;;;;;;;;4905496;29;20060;-69
2023/09/11 04:45:26;;;;;;;5.85;5.10;;;;;;;;;;4922800;29;20054;-69
2023/09/11 04:47:52;;;;;;;9.05;6.03;;;;;;;;;;4924072;29;20091;-69
2023/09/11 04:50:18;;;;;;;10.63;6.05;;;;;;;;;;4922604;29;20055;-69
2023/09/11 04:52:44;;;;;;;7.97;5.32;;;;;;;;;;4922384;29;20032;-69
2023/09/11 04:55:11;;;;;;;8.25;5.32;;;;;;;;;;4922628;29;20024;-68
2023/09/11 04:57:37;;;;;;;7.80;5.35;;;;;;;;;;4905291;29;20028;-69
2023/09/11 05:00:09;;;;;;;6.97;5.65;;;;;;;;;;4922261;29;20079;-69
2023/09/11 05:02:35;;;;;;;8.70;5.93;;;;;;;;;;4920775;29;20054;-71
2023/09/11 05:05:03;;;;;;;8.00;5.47;;;;;;;;;;4922470;29;20080;-68
2023/09/11 05:07:29;;;;;;;8.57;5.85;;;;;;;;;;4922228;29;20032;-70
2023/09/11 05:09:55;;;;;;;8.30;5.63;;;;;;;;;;4922300;29;20073;-70
2023/09/11 05:12:21;;;;;;;9.50;6.07;;;;;;;;;;4922046;29;20063;-70
2023/09/11 05:14:47;;;;;;;9.15;5.63;;;;;;;;;;4922047;29;20053;-68
2023/09/11 05:17:13;;;;;;;7.63;5.10;;;;;;;;;;4904978;29;20176;-68
2023/09/11 05:19:39;;;;;;;6.65;5.53;;;;;;;;;;4922216;29;20063;-68
2023/09/11 05:22:05;;;;;;;6.97;5.10;;;;;;;;;;4904705;29;20127;-68
2023/09/11 05:24:33;;;;;;;5.97;4.78;;;;;;;;;;4922175;29;20493;-68
2023/09/11 05:26:59;;;;;;;7.97;5.80;;;;;;;;;;4904987;29;20039;-68
2023/09/11 05:29:25;;;;;;;7.55;5.13;;;;;;;;;;4921675;29;20433;-68
2023/09/11 05:31:51;;;;;;;6.43;5.03;;;;;;;;;;4921893;29;20060;-69
2023/09/11 05:34:17;;;;;;;7.55;5.57;;;;;;;;;;4921702;29;20368;-68
2023/09/11 05:36:43;;;;;;;7.28;5.38;;;;;;;;;;4921763;29;20084;-68
2023/09/11 05:39:09;;;;;;;7.43;5.50;;;;;;;;;;4921693;29;20024;-68
2023/09/11 05:41:35;;;;;;;8.05;5.43;;;;;;;;;;4905812;29;20036;-68
2023/09/11 05:44:01;;;;;;;8.07;5.35;;;;;;;;;;4921625;29;20024;-68
2023/09/11 05:46:27;;;;;;;6.57;4.18;;;;;;;;;;4921368;29;20531;-69
2023/09/11 05:48:53;;;;;;;8.77;5.15;;;;;;;;;;4922929;29;20024;-69
2023/09/11 05:51:19;;;;;;;7.40;4.70;;;;;;;;;;4904384;29;20036;-68
2023/09/11 05:53:45;;;;;;;8.27;5.28;;;;;;;;;;4921464;29;20108;-68
2023/09/11 05:56:11;;;;;;;10.73;6.03;;;;;;;;;;4904219;29;20028;-69
2023/09/11 05:58:37;;;;;;;7.95;5.13;;;;;;;;;;4921496;29;20125;-69
2023/09/11 06:01:03;;;;;;;8.85;6.15;;;;;;;;;;4921233;29;20039;-69
2023/09/11 06:03:31;;;;;;;7.72;5.55;;;;;;;;;;4921503;29;20036;-69
2023/09/11 06:05:58;;;;;;;8.68;5.38;;;;;;;;;;4921317;29;20048;-69
2023/09/11 06:08:24;;;;;;;8.10;4.82;;;;;;;;;;4921061;29;20032;-70
2023/09/11 06:10:50;;;;;;;9.65;5.22;;;;;;;;;;4921029;29;20040;-69
2023/09/11 06:13:16;;;;;;;9.05;5.60;;;;;;;;;;4920848;29;20048;-69
2023/09/11 06:15:42;;;;;;;8.77;4.97;;;;;;;;;;4920920;29;20032;-69
2023/09/11 06:18:08;;;;;;;8.52;4.97;;;;;;;;;;4921087;29;20067;-69
2023/09/11 06:20:34;;;;;;;12.48;5.80;;;;;;;;;;4931806;29;20489;-69
2023/09/11 06:23:01;;;;;;;8.30;4.53;;;;;;;;;;4920944;29;20028;-70
2023/09/11 06:25:27;;;;;;;7.13;4.53;;;;;;;;;;4920532;29;20088;-69
2023/09/11 06:27:53;;;;;;;6.40;4.43;;;;;;;;;;4920512;29;20036;-69
2023/09/11 06:30:19;;;;;;;8.50;4.85;;;;;;;;;;4931108;29;20055;-68
2023/09/11 06:32:45;;;;;;;9.48;5.15;;;;;;;;;;4925826;29;20024;-68
2023/09/11 06:35:11;;;;;;;7.57;4.97;;;;;;;;;;4910449;29;20088;-69
2023/09/11 06:37:37;;;;;;;6.95;4.32;;;;;;;;;;4914071;29;21337;-69
2023/09/11 06:40:13;;;;;;;9.02;4.93;;;;;;;;;;4927401;29;20032;-69
2023/09/11 06:42:39;;;;;;;9.00;5.30;;;;;;;;;;4929874;29;20020;-69
2023/09/11 06:45:05;;;;;;;4.57;3.45;;;;;;;;;;4907919;29;20063;-69
2023/09/11 06:47:31;;;;;;;5.88;3.95;;;;;;;;;;4920395;29;20556;-70
2023/09/11 06:49:57;;;;;;;7.25;4.65;;;;;;;;;;4922615;29;20032;-71
2023/09/11 06:52:23;;;;;;;5.60;4.13;;;;;;;;;;4910163;29;20107;-71
2023/09/11 06:54:49;;;;;;;5.18;3.42;;;;;;;;;;4919897;29;20084;-69
2023/09/11 06:57:15;;;;;;;4.82;3.58;;;;;;;;;;4922034;29;20032;-71
2023/09/11 06:59:41;;;;;;;5.40;3.70;;;;;;;;;;4919666;29;20076;-69
2023/09/11 07:02:08;;;;;;;5.13;3.33;;;;;;;;;;4920120;29;20024;-70
2023/09/11 07:04:34;;;;;;;6.47;3.95;;;;;;;;;;4920214;29;20039;-70
2023/09/11 07:07:00;;;;;;;8.48;3.92;;;;;;;;;;4921871;29;20029;-70
2023/09/11 07:09:26;;;;;;;6.32;3.45;;;;;;;;;;4920127;29;20455;-70
2023/09/11 07:11:56;;;;;;;6.90;3.90;;;;;;;;;;4918245;29;20413;-70
2023/09/11 07:14:22;;;;;;;5.93;4.07;;;;;;;;;;4918575;29;20118;-70
2023/09/11 07:16:48;;;;;;;6.70;3.92;;;;;;;;;;4918480;29;20032;-70
2023/09/11 07:19:14;;;;;;;5.00;3.20;;;;;;;;;;4918406;29;20043;-70
2023/09/11 07:21:41;;;;;;;5.10;4.05;;;;;;;;;;4918425;29;20024;-70
2023/09/11 07:24:07;;;;;;;4.43;3.63;;;;;;;;;;4900841;29;20407;-70
2023/09/11 07:26:33;;;;;;;7.43;4.10;;;;;;;;;;4931664;29;20042;-70
2023/09/11 07:29:04;;;;;;;7.05;3.67;;;;;;;;;;4901377;29;20074;-70
2023/09/11 07:31:31;;;;;;;5.80;3.60;;;;;;;;;;4919781;29;20027;-70
2023/09/11 07:33:57;;;;;;;9.65;4.05;;;;;;;;;;4910397;29;20060;-70
2023/09/11 07:36:23;;;;;;;6.65;4.60;;;;;;;;;;4930445;29;20020;-70
2023/09/11 07:38:49;;;;;;;7.47;4.10;;;;;;;;;;4905268;29;20032;-69
2023/09/11 07:41:16;;;;;;;7.40;3.78;;;;;;;;;;4906429;29;20386;-69
2023/09/11 07:43:46;;;;;;;6.93;4.18;;;;;;;;;;4931957;29;20056;-69
2023/09/11 07:46:12;;;;;;;7.10;3.65;;;;;;;;;;4928762;29;20093;-68
2023/09/11 07:48:38;;;;;;;5.78;3.80;;;;;;;;;;4922920;29;20097;-71
2023/09/11 07:51:04;;;;;;;7.65;4.90;;;;;;;;;;4923326;29;20024;-78
2023/09/11 07:53:30;;;;;;;6.10;4.32;;;;;;;;;;4905220;29;20035;-78
2023/09/11 07:55:56;;;;;;;7.28;4.03;;;;;;;;;;4914966;29;20020;-77
2023/09/11 07:58:23;;;;;;;6.72;4.00;;;;;;;;;;4935298;29;20028;-74
2023/09/11 08:00:49;;;;;;;9.05;4.80;;;;;;;;;;4906108;29;20473;-76
2023/09/11 08:03:15;;;;;;;7.30;4.95;;;;;;;;;;4928338;29;20032;-76
2023/09/11 08:05:41;;;;;;;6.45;4.53;;;;;;;;;;4922364;29;20088;-76
2023/09/11 08:08:07;;;;;;;10.27;5.32;;;;;;;;;;4924598;29;20026;-76
2023/09/11 08:10:33;;;;;;;6.97;4.45;;;;;;;;;;4937040;29;20038;-72
2023/09/11 08:12:59;;;;;;;7.68;4.95;;;;;;;;;;4932769;29;20052;-68
2023/09/11 08:15:28;;;;;;;8.93;4.75;;;;;;;;;;4918981;29;20056;-68
2023/09/11 08:17:54;;;;;;;6.63;5.13;;;;;;;;;;4921051;29;20032;-68
2023/09/11 08:20:20;;;;;;;7.57;4.88;;;;;;;;;;4921322;29;20024;-68
2023/09/11 08:22:46;;;;;;;7.22;4.55;;;;;;;;;;4933228;29;20039;-68
2023/09/11 08:25:13;;;;;;;6.30;4.25;;;;;;;;;;4926162;29;20035;-68
2023/09/11 08:27:39;;;;;;;7.10;3.92;;;;;;;;;;4941275;29;20032;-68
2023/09/11 08:30:06;;;;;;;6.40;4.47;;;;;;;;;;4941421;29;20024;-68
2023/09/11 08:32:35;;;;;;;5.97;4.25;;;;;;;;;;4941650;29;20052;-68
2023/09/11 08:35:02;;;;;;;7.85;4.82;;;;;;;;;;4941402;29;20024;-68
2023/09/11 08:37:28;;;;;;;6.18;4.70;;;;;;;;;;4941725;29;20079;-68
2023/09/11 08:39:55;;;;;;;6.43;4.55;;;;;;;;;;4926653;29;20028;-68
2023/09/11 08:42:21;;;;;;;6.95;4.85;;;;;;;;;;4923117;29;20032;-68
2023/09/11 08:44:47;;;;;;;8.23;5.18;;;;;;;;;;4921433;29;20028;-68
2023/09/11 08:47:14;;;;;;;5.38;3.75;;;;;;;;;;4904642;29;20032;-68
2023/09/11 08:49:44;;;;;;;6.68;4.57;;;;;;;;;;4922811;29;20115;-68
2023/09/11 08:52:12;;;;;;;5.75;4.43;;;;;;;;;;4904490;29;20050;-68
2023/09/11 08:54:41;;;;;;;7.80;4.45;;;;;;;;;;4921142;29;20036;-68
2023/09/11 08:57:07;;;;;;;6.72;5.00;;;;;;;;;;4909381;29;20104;-69
2023/09/11 08:59:37;;;;;;;7.30;4.78;;;;;;;;;;4904972;29;20024;-69
2023/09/11 09:02:04;;;;;;;6.57;4.38;;;;;;;;;;4922156;29;20031;-69
2023/09/11 09:04:30;;;;;;;7.00;4.30;;;;;;;;;;4903724;29;20066;-69
2023/09/11 09:06:57;;;;;;;5.80;4.18;;;;;;;;;;4904463;29;20032;-69
2023/09/11 09:09:23;;;;;;;5.88;4.05;;;;;;;;;;4921353;29;20028;-69
2023/09/11 09:11:49;;;;;;;6.55;4.45;;;;;;;;;;4903759;29;20060;-69
2023/09/11 09:14:19;;;;;;;5.10;3.95;;;;;;;;;;4920869;29;20028;-69
2023/09/11 09:16:46;;;;;;;5.45;3.78;;;;;;;;;;4903998;29;20028;-69
2023/09/11 09:19:12;;;;;;;6.45;4.22;;;;;;;;;;4921706;29;20393;-69
2023/09/11 09:21:58;;;;;;;6.35;4.07;;;;;;;;;;4920652;29;20555;-68
2023/09/11 09:24:24;;;;;;;6.18;3.67;;;;;;;;;;4921221;29;20112;-69
2023/09/11 09:27:00;;;;;;;6.88;3.97;;;;;;;;;;4926971;29;20480;-69
2023/09/11 09:29:26;;;;;;;7.88;3.78;;;;;;;;;;4923142;29;20028;-68
2023/09/11 09:31:52;;;;;;;4.20;2.95;;;;;;;;;;4923341;29;20050;-68
2023/09/11 09:34:18;;;;;;;5.38;3.47;;;;;;;;;;4940515;29;20028;-68
2023/09/11 09:36:52;;;;;;;6.40;3.70;;;;;;;;;;4910270;29;20024;-68
2023/09/11 09:39:18;;;;;;;3.88;3.03;;;;;;;;;;4903810;29;20028;-68
2023/09/11 09:41:53;;;;;;;5.00;2.90;;;;;;;;;;4924075;29;20038;-69
2023/09/11 09:44:37;;;;;;;4.50;3.53;;;;;;;;;;4920989;29;20064;-69
2023/09/11 09:47:07;;;;;;;5.28;3.47;;;;;;;;;;4921085;29;20116;-69
2023/09/11 09:49:47;;;;;;;5.22;4.03;;;;;;;;;;4904626;29;20024;-69
2023/09/11 09:52:14;;;;;;;4.53;3.00;;;;;;;;;;4920296;29;20029;-69
2023/09/11 09:54:45;;;;;;;4.68;3.15;;;;;;;;;;4903190;29;20028;-69
2023/09/11 09:57:13;;;;;;;4.85;3.60;;;;;;;;;;4928794;29;20019;-69
2023/09/11 09:59:39;;;;;;;5.60;3.78;;;;;;;;;;4939531;29;20027;-69
2023/09/11 10:02:07;;;;;;;4.50;3.63;;;;;;;;;;4939877;29;20374;-69
2023/09/11 10:04:33;;;;;;;5.93;3.65;;;;;;;;;;4922847;29;20032;-69
2023/09/11 10:06:59;;;;;;;5.32;3.53;;;;;;;;;;4922567;29;20023;-69
2023/09/11 10:09:25;;;;;;;5.78;4.05;;;;;;;;;;4938542;29;20043;-69
2023/09/11 10:11:51;;;;;;;4.38;3.60;;;;;;;;;;4938549;29;20500;-72
2023/09/11 10:14:18;;;;;;;5.18;3.88;;;;;;;;;;4932505;29;20032;-72
2023/09/11 10:16:46;;;;;;;3.60;3.30;;;;;;;;;;4939594;29;20079;-72
2023/09/11 10:19:12;;;;;;;5.43;3.65;;;;;;;;;;4922748;29;20048;-72
2023/09/11 10:21:38;;;;;;;5.97;3.47;;;;;;;;;;4919255;29;20039;-72
2023/09/11 10:24:05;;;;;;;4.57;3.63;;;;;;;;;;4901242;29;20118;-73
2023/09/11 10:26:45;;;;;;;5.07;3.47;;;;;;;;;;4903087;29;20127;-72
2023/09/11 10:29:12;;;;;;;4.25;2.70;;;;;;;;;;4938885;29;20107;-72
2023/09/11 10:31:41;;;;;;;3.63;3.25;;;;;;;;;;4938400;29;20028;-71
2023/09/11 10:34:08;;;;;;;5.35;3.30;;;;;;;;;;4938673;29;20071;-70
2023/09/11 10:36:35;;;;;;;4.72;3.13;;;;;;;;;;4938788;29;20027;-72
2023/09/11 10:39:04;;;;;;;5.35;3.85;;;;;;;;;;4912663;29;20031;-73
2023/09/11 10:41:31;;;;;;;5.25;3.65;;;;;;;;;;4903541;29;20442;-72
2023/09/11 10:43:57;;;;;;;5.20;3.45;;;;;;;;;;4919522;29;20028;-70
2023/09/11 10:46:23;;;;;;;5.20;3.30;;;;;;;;;;4919507;29;20036;-72
2023/09/11 10:48:51;;;;;;;4.53;3.28;;;;;;;;;;4921280;29;20071;-71
2023/09/11 10:51:17;;;;;;;6.32;4.30;;;;;;;;;;4919735;29;20167;-71
2023/09/11 10:53:43;;;;;;;5.35;3.65;;;;;;;;;;4919289;29;20024;-70
2023/09/11 10:56:10;;;;;;;4.93;3.78;;;;;;;;;;4919479;29;20032;-71
2023/09/11 10:58:37;;;;;;;4.82;3.92;;;;;;;;;;4919060;29;20110;-70
2023/09/11 11:01:05;;;;;;;5.63;3.90;;;;;;;;;;4937406;29;20039;-72
2023/09/11 11:03:32;;;;;;;6.57;3.90;;;;;;;;;;4920621;29;20028;-72
2023/09/11 11:06:02;;;;;;;4.50;3.47;;;;;;;;;;4920734;29;20481;-72
2023/09/11 11:08:32;;;;;;;4.22;3.33;;;;;;;;;;4937780;29;20056;-71
2023/09/11 11:10:58;;;;;;;4.50;3.65;;;;;;;;;;4937821;29;20404;-73
2023/09/11 11:13:24;;;;;;;5.57;3.70;;;;;;;;;;4937560;29;20047;-73
2023/09/11 11:16:09;;;;;;;5.78;3.50;;;;;;;;;;4920669;29;20524;-73
2023/09/11 11:18:35;;;;;;;6.53;4.35;;;;;;;;;;4920860;29;20038;-73
2023/09/11 11:21:05;;;;;;;4.72;3.38;;;;;;;;;;4939660;29;20032;-72
2023/09/11 11:23:32;;;;;;;5.05;3.30;;;;;;;;;;4941880;29;20122;-70
2023/09/11 11:26:05;;;;;;;4.78;3.38;;;;;;;;;;4942055;29;20032;-70
2023/09/11 11:28:41;;;;;;;4.72;3.25;;;;;;;;;;4930883;29;20167;-70
2023/09/11 11:31:08;;;;;;;3.33;2.78;;;;;;;;;;4933576;29;20036;-70
2023/09/11 11:33:35;;;;;;;4.22;3.25;;;;;;;;;;4933266;29;20032;-70
2023/09/11 11:36:02;;;;;;;5.20;3.40;;;;;;;;;;4923463;29;20027;-73
2023/09/11 11:38:29;;;;;;;5.10;3.35;;;;;;;;;;4935931;29;20016;-72
2023/09/11 11:40:55;;;;;;;5.10;3.22;;;;;;;;;;4908068;29;20039;-73
2023/09/11 11:43:22;;;;;;;4.75;3.60;;;;;;;;;;4923138;29;20528;-73
2023/09/11 11:45:48;;;;;;;3.72;2.80;;;;;;;;;;4931610;29;20473;-72
2023/09/11 11:48:15;;;;;;;4.60;2.85;;;;;;;;;;4926569;29;20041;-71
2023/09/11 11:50:48;;;;;;;5.38;3.42;;;;;;;;;;4906101;29;20036;-71
2023/09/11 11:53:14;;;;;;;;;;;;;;;;;;4906072;29;20107;-71
2023/09/11 11:55:41;;;;;;;4.55;3.00;;;;;;;;;;4922735;29;20379;-71
2023/09/11 11:58:09;;;;;;;4.40;3.08;;;;;;;;;;4932836;29;20035;-71
2023/09/11 12:00:35;;;;;;;4.80;3.20;;;;;;;;;;4924651;29;20032;-72
2023/09/11 12:03:06;;;;;;;5.60;3.22;;;;;;;;;;4935741;29;20524;-70
2023/09/11 12:05:33;;;;;;;4.10;3.13;;;;;;;;;;4922564;29;20024;-70
2023/09/11 12:07:58;;;;;;;;;;;;;;;;;;4923248;29;20529;-70
2023/09/11 12:10:24;;;;;;;5.72;3.30;;;;;;;;;;4922433;29;19961;-70
2023/09/11 12:12:50;;;;;;;4.45;3.05;;;;;;;;;;4911723;29;20087;-69
2023/09/11 12:15:17;;;;;;;4.72;2.90;;;;;;;;;;4902573;29;20021;-70
2023/09/11 12:17:47;;;;;;;4.70;3.80;;;;;;;;;;4885899;29;20399;-70
2023/09/11 12:20:13;;;;;;;6.22;4.10;;;;;;;;;;4885623;29;20395;-70
2023/09/11 12:22:39;;;;;;;4.73;3.70;;;;;;;;;;4902588;29;20398;-70
2023/09/11 12:25:05;;;;;;;4.88;3.55;;;;;;;;;;4885203;29;20904;-70
2023/09/11 12:27:31;;;;;;;4.85;3.58;;;;;;;;;;4905471;29;20056;-70
2023/09/11 12:29:59;;;;;;;6.03;3.55;;;;;;;;;;4922606;29;20461;-70
2023/09/11 12:32:25;;;;;;;4.95;2.90;;;;;;;;;;4922814;29;20111;-70
2023/09/11 12:34:51;;;;;;;3.10;2.30;;;;;;;;;;4922577;29;20056;-70
2023/09/11 12:37:17;;;;;;;3.78;2.53;;;;;;;;;;4914995;29;20032;-70
2023/09/11 12:39:43;;;;;;;5.25;2.70;;;;;;;;;;4887953;29;20374;-71
2023/09/11 12:42:09;;;;;;;7.28;3.30;;;;;;;;;;4903300;29;20036;-69
2023/09/11 12:44:35;;;;;;;5.03;2.85;;;;;;;;;;4902640;29;20039;-70
2023/09/11 12:47:01;;;;;;;3.33;2.60;;;;;;;;;;4903418;29;20111;-70
2023/09/11 12:49:27;;;;;;;5.47;3.15;;;;;;;;;;4904125;29;20088;-70
2023/09/11 12:51:54;;;;;;;3.80;2.70;;;;;;;;;;4906173;29;20060;-70
2023/09/11 12:54:21;;;;;;;5.20;3.25;;;;;;;;;;4891642;29;20048;-70
2023/09/11 12:56:49;;;;;;;4.05;3.30;;;;;;;;;;4919593;29;20448;-69
2023/09/11 12:59:15;;;;;;;2.90;2.70;;;;;;;;;;4913269;29;20025;-70
2023/09/11 13:01:41;;;;;;;3.80;2.90;;;;;;;;;;4905917;29;20028;-70
2023/09/11 13:04:07;;;;;;;4.88;3.20;;;;;;;;;;4905352;29;20056;-71
2023/09/11 13:06:33;;;;;;;3.45;2.50;;;;;;;;;;4920123;29;20035;-70
2023/09/11 13:09:00;;;;;;;3.13;2.67;;;;;;;;;;4917692;29;20039;-71
2023/09/11 13:11:26;;;;;;;3.83;2.85;;;;;;;;;;4919265;29;20111;-72
2023/09/11 13:13:52;;;;;;;4.55;2.47;;;;;;;;;;4926629;29;20044;-71
2023/09/11 13:16:18;;;;;;;4.20;2.88;;;;;;;;;;4934729;29;20028;-70
2023/09/11 13:18:45;;;;;;;3.65;2.95;;;;;;;;;;4937647;29;20023;-70
2023/09/11 13:21:11;;;;;;;4.60;2.85;;;;;;;;;;4923013;29;20032;-70
2023/09/11 13:23:37;;;;;;;4.55;3.28;;;;;;;;;;4919036;29;20028;-73
2023/09/11 13:26:03;;;;;;;3.67;2.78;;;;;;;;;;4928164;29;20023;-70
2023/09/11 13:28:29;;;;;;;5.05;2.92;;;;;;;;;;4938154;29;20035;-70
2023/09/11 13:30:59;;;;;;;6.70;3.38;;;;;;;;;;4928378;29;20095;-70
2023/09/11 13:33:25;;;;;;;3.20;2.38;;;;;;;;;;4925051;29;20086;-69
2023/09/11 13:35:51;;;;;;;4.57;3.00;;;;;;;;;;4921811;29;20031;-69
2023/09/11 13:38:17;;;;;;;3.45;3.10;;;;;;;;;;4921325;29;20031;-69
2023/09/11 13:40:47;;;;;;;3.60;2.80;;;;;;;;;;4905880;29;20039;-70
2023/09/11 13:43:14;;;;;;;2.83;2.33;;;;;;;;;;4920622;29;20032;-70
2023/09/11 13:45:40;;;;;;;4.20;3.30;;;;;;;;;;4921775;29;20048;-69
2023/09/11 13:48:06;;;;;;;3.17;2.33;;;;;;;;;;4905421;29;20020;-69
2023/09/11 13:50:32;;;;;;;3.50;2.20;;;;;;;;;;4921508;29;20028;-69
2023/09/11 13:52:58;;;;;;;5.25;2.40;;;;;;;;;;4920967;29;20398;-70
2023/09/11 13:55:24;;;;;;;4.93;3.03;;;;;;;;;;4919918;29;20032;-69
2023/09/11 13:57:50;;;;;;;5.45;2.63;;;;;;;;;;4914014;29;20031;-70
2023/09/11 14:00:16;;;;;;;4.63;2.97;;;;;;;;;;4919234;29;20096;-70
2023/09/11 14:02:42;;;;;;;3.83;2.78;;;;;;;;;;4919345;29;20053;-70
2023/09/11 14:05:08;;;;;;;4.90;2.75;;;;;;;;;;4926337;29;20028;-74
2023/09/11 14:07:34;;;;;;;3.40;2.42;;;;;;;;;;4903564;29;20039;-71
2023/09/11 14:10:01;;;;;;;4.25;2.72;;;;;;;;;;4919838;29;20076;-73
2023/09/11 14:12:27;;;;;;;4.60;3.10;;;;;;;;;;4904128;29;20062;-71
2023/09/11 14:14:53;;;;;;;4.25;2.90;;;;;;;;;;4928356;29;20028;-72
2023/09/11 14:17:19;;;;;;;4.32;2.90;;;;;;;;;;4919134;29;20028;-71
2023/09/11 14:19:45;;;;;;;5.72;3.10;;;;;;;;;;4918987;29;20481;-71
2023/09/11 14:22:11;;;;;;;4.72;3.17;;;;;;;;;;4902068;29;20115;-72
2023/09/11 14:24:37;;;;;;;4.55;2.97;;;;;;;;;;4902190;29;20056;-71
2023/09/11 14:27:04;;;;;;;4.00;3.13;;;;;;;;;;4918608;29;20118;-73
2023/09/11 14:29:30;;;;;;;5.43;3.17;;;;;;;;;;4918499;29;20111;-73
2023/09/11 14:31:56;;;;;;;5.72;3.05;;;;;;;;;;4901761;29;20062;-72
2023/09/11 14:34:22;;;;;;;5.50;3.08;;;;;;;;;;4918727;29;20028;-72
2023/09/11 14:36:48;;;;;;;4.80;3.03;;;;;;;;;;4918715;29;20055;-70
2023/09/11 14:39:15;;;;;;;3.53;2.75;;;;;;;;;;4925321;29;20039;-71
2023/09/11 14:41:41;;;;;;;4.38;2.97;;;;;;;;;;4918129;29;20031;-72